createdAt,value
2023-03-19T00:02:18.978Z,2.40
2023-03-19T00:04:46.588Z,2.50
2023-03-19T00:07:13.869Z,2.53
2023-03-19T00:09:41.146Z,2.20
2023-03-19T00:12:08.753Z,2.28
2023-03-19T00:14:36.010Z,2.13
2023-03-19T00:17:03.184Z,2.00
2023-03-19T00:19:31.748Z,2.42
2023-03-19T00:21:59.004Z,2.55
2023-03-19T00:24:26.206Z,2.53
2023-03-19T00:26:53.637Z,2.10
2023-03-19T00:29:20.902Z,2.15
2023-03-19T00:31:48.123Z,2.58
2023-03-19T00:34:18.249Z,2.20
2023-03-19T00:39:13.850Z,2.10
2023-03-19T00:41:41.031Z,2.10
2023-03-19T00:44:08.475Z,2.08
2023-03-19T00:46:35.685Z,2.30
2023-03-19T00:49:02.910Z,2.35
2023-03-19T00:51:32.601Z,1.98
2023-03-19T00:54:01.913Z,2.10
2023-03-19T00:56:41.820Z,2.20
2023-03-19T00:59:14.295Z,2.00
2023-03-19T01:01:44.909Z,2.20
2023-03-19T01:04:19.769Z,2.10
2023-03-19T01:06:50.296Z,2.17
2023-03-19T01:09:21.302Z,2.00
2023-03-19T01:11:51.410Z,2.00
2023-03-19T01:16:49.324Z,1.90
2023-03-19T01:19:17.325Z,2.20
2023-03-19T01:21:47.003Z,2.28
2023-03-19T01:24:14.706Z,1.90
2023-03-19T01:26:42.323Z,2.50
2023-03-19T01:29:16.027Z,2.05
2023-03-19T01:31:45.882Z,1.90
2023-03-19T01:34:13.676Z,2.00
2023-03-19T01:36:43.992Z,1.80
2023-03-19T01:39:14.443Z,2.30
2023-03-19T01:41:58.203Z,2.33
2023-03-19T01:44:30.719Z,2.63
2023-03-19T01:46:58.339Z,1.90
2023-03-19T01:49:27.266Z,2.40
2023-03-19T01:52:00.924Z,2.05
2023-03-19T01:54:28.546Z,2.30
2023-03-19T01:57:02.072Z,2.10
2023-03-19T01:59:39.050Z,2.30
2023-03-19T02:02:08.593Z,2.08
2023-03-19T02:04:36.264Z,2.00
2023-03-19T02:07:03.951Z,1.85
2023-03-19T02:09:31.678Z,2.20
2023-03-19T02:11:59.379Z,2.00
2023-03-19T02:14:26.985Z,2.10
2023-03-19T02:16:58.284Z,2.08
2023-03-19T02:19:30.346Z,1.90
2023-03-19T02:21:57.951Z,1.90
2023-03-19T02:24:31.144Z,2.10
2023-03-19T02:27:07.975Z,2.00
2023-03-19T02:29:37.423Z,2.10
2023-03-19T02:32:06.372Z,1.85
2023-03-19T02:34:34.654Z,2.05
2023-03-19T02:37:03.929Z,1.70
2023-03-19T02:39:36.506Z,2.10
2023-03-19T02:42:13.372Z,1.90
2023-03-19T02:44:51.877Z,2.08
2023-03-19T02:47:21.670Z,1.73
2023-03-19T02:49:54.914Z,1.90
2023-03-19T02:52:27.126Z,2.10
2023-03-19T02:54:58.748Z,1.80
2023-03-19T02:57:30.539Z,2.03
2023-03-19T03:00:01.178Z,1.90
2023-03-19T03:02:36.512Z,1.90
2023-03-19T03:05:08.444Z,1.70
2023-03-19T03:07:36.190Z,1.83
2023-03-19T03:10:08.531Z,1.90
2023-03-19T03:12:40.718Z,1.90
2023-03-19T03:15:10.576Z,1.83
2023-03-19T03:17:38.238Z,2.25
2023-03-19T03:20:10.662Z,2.00
2023-03-19T03:22:38.199Z,1.90
2023-03-19T03:25:07.274Z,2.00
2023-03-19T03:27:40.018Z,1.70
2023-03-19T03:30:10.798Z,2.00
2023-03-19T03:32:41.439Z,1.85
2023-03-19T03:35:10.954Z,1.80
2023-03-19T03:37:38.234Z,2.20
2023-03-19T03:40:08.199Z,1.98
2023-03-19T03:42:36.116Z,1.88
2023-03-19T03:45:03.407Z,2.00
2023-03-19T03:47:32.190Z,2.38
2023-03-19T03:49:59.437Z,2.00
2023-03-19T03:52:31.114Z,2.20
2023-03-19T03:54:58.842Z,2.20
2023-03-19T03:57:26.545Z,2.08
2023-03-19T03:59:53.845Z,2.00
2023-03-19T04:02:21.552Z,2.00
2023-03-19T04:04:50.081Z,2.00
2023-03-19T04:07:17.267Z,2.13
2023-03-19T04:09:45.955Z,2.10
2023-03-19T04:12:13.196Z,2.15
2023-03-19T04:14:40.407Z,2.08
2023-03-19T04:17:07.731Z,2.08
2023-03-19T04:19:34.920Z,2.08
2023-03-19T04:22:04.261Z,2.00
2023-03-19T04:24:31.589Z,2.10
2023-03-19T04:26:58.796Z,2.70
2023-03-19T04:29:26.135Z,2.28
2023-03-19T04:31:53.361Z,2.10
2023-03-19T04:34:20.865Z,1.90
2023-03-19T04:36:48.832Z,2.30
2023-03-19T04:39:17.388Z,2.20
2023-03-19T04:41:45.095Z,1.85
2023-03-19T04:44:12.297Z,2.45
2023-03-19T04:46:39.545Z,2.05
2023-03-19T04:49:06.734Z,1.98
2023-03-19T04:51:33.918Z,2.40
2023-03-19T04:54:01.121Z,2.28
2023-03-19T04:56:29.598Z,2.00
2023-03-19T04:58:56.782Z,2.58
2023-03-19T05:01:23.986Z,2.10
2023-03-19T05:03:51.451Z,1.92
2023-03-19T05:06:19.871Z,2.25
2023-03-19T05:08:47.077Z,2.40
2023-03-19T05:11:14.293Z,2.13
2023-03-19T05:13:42.812Z,2.30
2023-03-19T05:16:10.384Z,2.00
2023-03-19T05:18:40.696Z,2.00
2023-03-19T05:21:10.408Z,2.50
2023-03-19T05:23:37.622Z,2.58
2023-03-19T05:26:04.963Z,2.40
2023-03-19T05:28:32.167Z,2.03
2023-03-19T05:31:00.913Z,2.35
2023-03-19T05:33:28.319Z,2.20
2023-03-19T05:35:58.129Z,2.45
2023-03-19T05:38:25.550Z,2.30
2023-03-19T05:40:52.727Z,2.22
2023-03-19T05:43:19.962Z,2.10
2023-03-19T05:45:50.743Z,2.20
2023-03-19T05:48:19.298Z,2.70
2023-03-19T05:50:46.523Z,2.40
2023-03-19T05:53:13.848Z,2.30
2023-03-19T05:55:41.068Z,2.17
2023-03-19T05:58:08.656Z,2.20
2023-03-19T06:00:36.190Z,2.45
2023-03-19T06:03:03.552Z,2.20
2023-03-19T06:05:32.121Z,2.35
2023-03-19T06:07:59.353Z,2.20
2023-03-19T06:10:27.058Z,2.08
2023-03-19T06:12:54.266Z,2.70
2023-03-19T06:15:21.484Z,2.60
2023-03-19T06:17:48.726Z,2.40
2023-03-19T06:20:16.116Z,2.20
2023-03-19T06:22:44.737Z,2.17
2023-03-19T06:25:12.055Z,2.70
2023-03-19T06:27:39.262Z,2.25
2023-03-19T06:30:07.254Z,1.90
2023-03-19T06:32:34.844Z,2.30
2023-03-19T06:35:02.091Z,2.28
2023-03-19T06:37:29.289Z,2.10
2023-03-19T06:39:58.036Z,2.35
2023-03-19T06:42:25.268Z,2.33
2023-03-19T06:44:53.720Z,2.08
2023-03-19T06:47:21.030Z,2.30
2023-03-19T06:49:48.216Z,2.60
2023-03-19T06:52:15.471Z,2.53
2023-03-19T06:54:42.684Z,2.63
2023-03-19T06:57:11.390Z,2.53
2023-03-19T06:59:38.576Z,2.60
2023-03-19T07:02:05.830Z,3.15
2023-03-19T07:04:33.184Z,2.50
2023-03-19T07:07:02.342Z,3.08
2023-03-19T07:09:29.526Z,2.90
2023-03-19T07:11:56.710Z,2.50
2023-03-19T07:14:25.662Z,3.00
2023-03-19T07:16:52.990Z,3.22
2023-03-19T07:19:20.247Z,2.95
2023-03-19T07:21:47.711Z,2.88
2023-03-19T07:24:14.922Z,2.75
2023-03-19T07:26:43.862Z,3.00
2023-03-19T07:29:11.058Z,2.72
2023-03-19T07:31:39.868Z,2.55
2023-03-19T07:34:07.159Z,2.53
2023-03-19T07:36:34.367Z,3.00
2023-03-19T07:39:01.581Z,3.00
2023-03-19T07:41:28.772Z,2.80
2023-03-19T07:43:55.984Z,2.60
2023-03-19T07:46:23.344Z,2.63
2023-03-19T07:48:52.510Z,2.80
2023-03-19T07:51:19.686Z,2.72
2023-03-19T07:53:46.870Z,2.65
2023-03-19T07:56:14.071Z,2.60
2023-03-19T07:58:41.271Z,3.10
2023-03-19T08:01:08.561Z,2.47
2023-03-19T08:03:35.747Z,2.97
2023-03-19T08:06:04.669Z,2.80
2023-03-19T08:08:34.696Z,2.60
2023-03-19T08:11:01.987Z,2.50
2023-03-19T08:13:29.265Z,2.53
2023-03-19T08:15:56.624Z,2.50
2023-03-19T08:18:23.949Z,2.42
2023-03-19T08:20:51.188Z,2.45
2023-03-19T08:23:19.696Z,2.63
2023-03-19T08:25:46.911Z,2.50
2023-03-19T08:28:14.102Z,2.50
2023-03-19T08:30:41.340Z,2.08
2023-03-19T08:33:08.663Z,2.65
2023-03-19T08:35:36.002Z,2.78
2023-03-19T08:38:03.216Z,2.33
2023-03-19T08:40:31.744Z,2.63
2023-03-19T08:42:58.946Z,2.50
2023-03-19T08:45:26.195Z,2.80
2023-03-19T08:47:53.396Z,2.45
2023-03-19T08:50:20.683Z,2.67
2023-03-19T08:52:48.064Z,2.20
2023-03-19T08:55:15.873Z,2.40
2023-03-19T08:57:44.439Z,2.45
2023-03-19T09:00:12.392Z,2.13
2023-03-19T09:02:40.251Z,2.30
2023-03-19T09:05:08.217Z,2.35
2023-03-19T09:07:35.399Z,2.28
2023-03-19T09:10:02.583Z,2.40
2023-03-19T09:12:29.798Z,2.15
2023-03-19T09:14:58.291Z,2.55
2023-03-19T09:17:25.535Z,2.17
2023-03-19T09:19:52.717Z,2.15
2023-03-19T09:22:19.928Z,2.45
2023-03-19T09:24:47.115Z,2.25
2023-03-19T09:27:14.352Z,2.40
2023-03-19T09:29:42.066Z,2.90
2023-03-19T09:32:10.786Z,2.33
2023-03-19T09:34:38.182Z,2.40
2023-03-19T09:37:05.569Z,2.53
2023-03-19T09:39:33.236Z,2.30
2023-03-19T09:42:04.263Z,2.38
2023-03-19T09:44:31.819Z,2.40
2023-03-19T09:46:59.756Z,2.03
2023-03-19T09:49:28.859Z,2.20
2023-03-19T09:51:56.445Z,2.30
2023-03-19T09:54:27.267Z,2.28
2023-03-19T09:56:54.474Z,2.25
2023-03-19T09:59:21.941Z,2.25
2023-03-19T10:01:50.437Z,2.15
2023-03-19T10:04:26.566Z,2.30
2023-03-19T10:06:55.248Z,2.00
2023-03-19T10:09:34.068Z,2.42
2023-03-19T10:12:07.137Z,2.30
2023-03-19T10:14:43.239Z,2.00
2023-03-19T10:17:12.115Z,2.00
2023-03-19T10:19:41.100Z,2.05
2023-03-19T10:22:12.156Z,2.10
2023-03-19T10:24:39.812Z,2.25
2023-03-19T10:27:10.058Z,2.20
2023-03-19T10:29:37.309Z,1.90
2023-03-19T10:32:07.503Z,2.35
2023-03-19T10:37:03.716Z,2.13
2023-03-19T10:39:33.017Z,2.00
2023-03-19T10:42:02.090Z,1.90
2023-03-19T10:44:30.179Z,1.77
2023-03-19T10:47:00.647Z,2.15
2023-03-19T10:49:27.844Z,2.08
2023-03-19T10:51:56.806Z,2.10
2023-03-19T10:54:24.502Z,2.10
2023-03-19T10:56:53.005Z,1.90
2023-03-19T10:59:21.698Z,1.83
2023-03-19T11:01:48.882Z,1.75
2023-03-19T11:04:17.641Z,1.85
2023-03-19T11:06:45.256Z,2.00
2023-03-19T11:09:14.046Z,1.83
2023-03-19T11:11:43.560Z,2.20
2023-03-19T11:14:14.854Z,2.20
2023-03-19T11:17:02.813Z,2.00
2023-03-19T11:19:31.816Z,1.98
2023-03-19T11:22:03.501Z,1.90
2023-03-19T11:24:33.138Z,1.83
2023-03-19T11:27:00.380Z,1.92
2023-03-19T11:29:28.968Z,2.13
2023-03-19T11:32:02.013Z,1.98
2023-03-19T11:34:34.403Z,1.98
2023-03-19T11:37:03.669Z,1.95
2023-03-19T11:39:32.223Z,2.07
2023-03-19T11:42:20.294Z,2.20
2023-03-19T11:44:51.945Z,2.05
2023-03-19T11:47:27.216Z,1.92
2023-03-19T11:50:04.743Z,1.92
2023-03-19T11:52:34.242Z,1.83
2023-03-19T11:55:05.056Z,1.60
2023-03-19T11:57:35.086Z,1.83
2023-03-19T12:00:07.900Z,1.60
2023-03-19T12:02:42.353Z,1.70
2023-03-19T12:05:13.534Z,2.10
2023-03-19T12:07:42.371Z,1.77
2023-03-19T12:10:18.044Z,2.00
2023-03-19T12:12:46.831Z,1.77
2023-03-19T12:15:17.194Z,1.33
2023-03-19T12:17:46.834Z,1.70
2023-03-19T12:20:21.301Z,1.80
2023-03-19T12:22:52.746Z,1.70
2023-03-19T12:25:25.664Z,1.90
2023-03-19T12:27:54.222Z,1.80
2023-03-19T12:30:25.314Z,1.90
2023-03-19T12:32:59.448Z,1.80
2023-03-19T12:35:28.346Z,1.75
2023-03-19T12:37:57.043Z,1.77
2023-03-19T12:40:27.097Z,1.70
2023-03-19T12:45:20.584Z,1.70
2023-03-19T12:47:49.090Z,1.75
2023-03-19T12:50:17.181Z,1.83
2023-03-19T12:52:44.803Z,1.63
2023-03-19T12:55:15.380Z,1.88
2023-03-19T12:57:43.725Z,1.70
2023-03-19T13:00:12.326Z,1.60
2023-03-19T13:02:39.966Z,1.83
2023-03-19T13:05:10.349Z,2.08
2023-03-19T13:07:41.065Z,1.50
2023-03-19T13:10:09.845Z,1.60
2023-03-19T13:12:37.546Z,1.42
2023-03-19T13:15:06.401Z,1.70
2023-03-19T13:17:36.242Z,1.52
2023-03-19T13:20:07.509Z,1.70
2023-03-19T13:22:37.168Z,1.70
2023-03-19T13:25:04.611Z,1.70
2023-03-19T13:27:32.243Z,1.60
2023-03-19T13:30:07.412Z,1.50
2023-03-19T13:32:38.911Z,1.58
2023-03-19T13:35:09.703Z,1.45
2023-03-19T13:37:38.228Z,1.55
2023-03-19T13:40:05.932Z,1.52
2023-03-19T13:42:37.835Z,1.63
2023-03-19T13:45:05.518Z,1.40
2023-03-19T13:47:39.586Z,1.60
2023-03-19T13:50:26.225Z,1.63
2023-03-19T13:52:56.955Z,1.60
2023-03-19T13:55:34.243Z,1.52
2023-03-19T13:58:12.280Z,1.42
2023-03-19T14:00:58.458Z,1.63
2023-03-19T14:03:25.745Z,1.33
2023-03-19T14:05:53.433Z,1.20
2023-03-19T14:08:22.812Z,1.63
2023-03-19T14:10:50.509Z,1.70
2023-03-19T14:13:19.505Z,1.40
2023-03-19T14:15:49.004Z,1.70
2023-03-19T14:18:18.613Z,1.55
2023-03-19T14:20:48.394Z,1.58
2023-03-19T14:23:23.466Z,1.45
2023-03-19T14:26:01.245Z,1.70
2023-03-19T14:28:31.575Z,1.95
2023-03-19T14:30:58.769Z,1.50
2023-03-19T14:33:26.881Z,1.50
2023-03-19T14:35:54.114Z,1.70
2023-03-19T14:38:24.034Z,1.52
2023-03-19T14:40:51.626Z,1.70
2023-03-19T14:43:23.133Z,1.70
2023-03-19T14:45:51.693Z,1.73
2023-03-19T14:48:22.264Z,1.65
2023-03-19T14:50:51.493Z,1.48
2023-03-19T14:53:18.802Z,1.40
2023-03-19T14:55:48.432Z,1.50
2023-03-19T14:58:15.682Z,1.65
2023-03-19T15:00:44.524Z,1.58
2023-03-19T15:03:19.206Z,1.67
2023-03-19T15:05:50.009Z,1.63
2023-03-19T15:08:17.805Z,1.50
2023-03-19T15:10:46.764Z,1.67
2023-03-19T15:13:17.105Z,1.67
2023-03-19T15:15:52.101Z,1.60
2023-03-19T15:18:20.669Z,1.58
2023-03-19T15:20:50.732Z,1.83
2023-03-19T15:23:26.915Z,1.70
2023-03-19T15:25:56.896Z,1.60
2023-03-19T15:28:24.904Z,1.50
2023-03-19T15:31:05.754Z,1.67
2023-03-19T15:33:42.079Z,1.73
2023-03-19T15:36:12.216Z,1.80
2023-03-19T15:38:40.231Z,1.88
2023-03-19T15:41:08.004Z,1.60
2023-03-19T15:43:35.296Z,1.50
2023-03-19T15:46:03.883Z,1.80
2023-03-19T15:48:34.736Z,1.90
2023-03-19T15:51:01.951Z,1.88
2023-03-19T15:53:29.536Z,1.60
2023-03-19T15:55:56.727Z,1.80
2023-03-19T15:58:25.552Z,1.70
2023-03-19T16:00:53.726Z,1.52
2023-03-19T16:03:23.305Z,1.40
2023-03-19T16:05:59.303Z,1.95
2023-03-19T16:08:27.014Z,1.65
2023-03-19T16:10:54.222Z,1.90
2023-03-19T16:13:26.967Z,1.48
2023-03-19T16:15:58.218Z,2.00
2023-03-19T16:18:27.556Z,1.60
2023-03-19T16:21:00.691Z,1.70
2023-03-19T16:23:29.622Z,1.60
2023-03-19T16:25:56.825Z,1.60
2023-03-19T16:28:25.059Z,1.42
2023-03-19T16:30:52.553Z,1.42
2023-03-19T16:33:20.817Z,1.83
2023-03-19T16:35:49.956Z,1.98
2023-03-19T16:38:17.916Z,1.77
2023-03-19T16:40:45.656Z,1.80
2023-03-19T16:43:17.102Z,1.95
2023-03-19T16:45:44.510Z,1.90
2023-03-19T16:48:11.710Z,1.67
2023-03-19T16:50:39.620Z,1.90
2023-03-19T16:53:11.798Z,1.98
2023-03-19T16:55:38.989Z,2.10
2023-03-19T16:58:06.844Z,1.90
2023-03-19T17:00:34.277Z,1.80
2023-03-19T17:03:01.574Z,1.90
2023-03-19T17:05:29.062Z,1.80
2023-03-19T17:07:56.469Z,2.00
2023-03-19T17:10:26.470Z,1.70
2023-03-19T17:12:54.044Z,1.92
2023-03-19T17:15:23.271Z,1.80
2023-03-19T17:17:50.739Z,2.13
2023-03-19T17:20:18.294Z,1.98
2023-03-19T17:22:45.545Z,1.85
2023-03-19T17:25:13.234Z,1.67
2023-03-19T17:27:41.781Z,1.80
2023-03-19T17:30:11.053Z,1.95
2023-03-19T17:32:38.336Z,2.17
2023-03-19T17:35:07.663Z,1.70
2023-03-19T17:37:35.790Z,1.80
2023-03-19T17:40:03.091Z,1.80
2023-03-19T17:42:32.247Z,1.70
2023-03-19T17:45:00.800Z,1.80
2023-03-19T17:47:28.020Z,1.60
2023-03-19T17:49:55.202Z,1.92
2023-03-19T17:52:23.331Z,1.70
2023-03-19T17:54:50.542Z,1.85
2023-03-19T17:57:17.833Z,1.92
2023-03-19T17:59:45.153Z,1.73
2023-03-19T18:02:16.648Z,1.80
2023-03-19T18:04:43.843Z,2.00
2023-03-19T18:07:11.040Z,1.90
2023-03-19T18:09:38.348Z,2.05
2023-03-19T18:12:05.931Z,2.13
2023-03-19T18:14:33.123Z,2.15
2023-03-19T18:17:00.320Z,1.80
2023-03-19T18:19:29.512Z,1.80
2023-03-19T18:21:56.728Z,2.23
2023-03-19T18:24:23.963Z,2.20
2023-03-19T18:26:51.161Z,2.30
2023-03-19T18:29:18.381Z,2.33
2023-03-19T18:31:45.645Z,2.00
2023-03-19T18:34:13.069Z,2.53
2023-03-19T18:36:41.610Z,2.22
2023-03-19T18:39:11.192Z,2.00
2023-03-19T18:41:38.395Z,2.20
2023-03-19T18:44:05.645Z,2.30
2023-03-19T18:46:33.185Z,2.40
2023-03-19T18:49:01.025Z,2.00
2023-03-19T18:51:28.296Z,2.28
2023-03-19T18:53:56.896Z,2.33
2023-03-19T18:56:24.796Z,2.20
2023-03-19T18:58:52.382Z,2.42
2023-03-19T19:01:19.980Z,2.40
2023-03-19T19:03:47.355Z,2.20
2023-03-19T19:06:16.777Z,2.38
2023-03-19T19:08:43.987Z,2.30
2023-03-19T19:11:12.909Z,2.50
2023-03-19T19:13:55.034Z,2.90
2023-03-19T19:16:26.207Z,2.53
2023-03-19T19:18:53.713Z,2.42
2023-03-19T19:21:20.974Z,2.17
2023-03-19T19:23:48.184Z,2.55
2023-03-19T19:26:19.253Z,2.55
2023-03-19T19:28:46.461Z,2.42
2023-03-19T19:31:16.702Z,2.40
2023-03-19T19:33:43.942Z,2.40
2023-03-19T19:36:11.366Z,2.53
2023-03-19T19:38:38.569Z,2.30
2023-03-19T19:41:06.833Z,2.38
2023-03-19T19:43:35.652Z,2.20
2023-03-19T19:46:02.992Z,2.25
2023-03-19T19:48:30.428Z,2.30
2023-03-19T19:50:57.695Z,2.42
2023-03-19T19:53:26.079Z,2.50
2023-03-19T19:55:53.347Z,2.13
2023-03-19T19:58:20.990Z,2.30
2023-03-19T20:01:02.395Z,2.95
2023-03-19T20:03:32.121Z,2.53
2023-03-19T20:05:59.477Z,2.67
2023-03-19T20:08:26.954Z,2.78
2023-03-19T20:10:54.272Z,2.50
2023-03-19T20:13:24.736Z,2.53
2023-03-19T20:15:54.802Z,2.70
2023-03-19T20:18:22.379Z,2.75
2023-03-19T20:20:49.677Z,2.40
2023-03-19T20:23:17.086Z,2.28
2023-03-19T20:25:44.520Z,2.75
2023-03-19T20:28:14.358Z,2.53
2023-03-19T20:30:41.698Z,2.50
2023-03-19T20:33:10.593Z,2.45
2023-03-19T20:35:38.331Z,2.72
2023-03-19T20:38:06.365Z,2.60
2023-03-19T20:40:34.188Z,2.67
2023-03-19T20:43:01.411Z,2.40
2023-03-19T20:45:29.443Z,2.40
2023-03-19T20:47:56.885Z,2.80
2023-03-19T20:50:25.922Z,2.65
2023-03-19T20:52:53.667Z,2.80
2023-03-19T20:55:21.412Z,2.28
2023-03-19T20:57:49.052Z,2.72
2023-03-19T21:00:20.158Z,2.20
2023-03-19T21:02:47.436Z,2.47
2023-03-19T21:05:14.817Z,2.33
2023-03-19T21:07:43.850Z,2.85
2023-03-19T21:10:15.531Z,2.40
2023-03-19T21:12:42.759Z,2.70
2023-03-19T21:15:10.388Z,2.80
2023-03-19T21:17:37.611Z,3.72
2023-03-19T21:20:05.586Z,2.70
2023-03-19T21:22:32.799Z,2.95
2023-03-19T21:25:03.200Z,2.95
2023-03-19T21:27:30.418Z,2.78
2023-03-19T21:29:57.601Z,2.80
2023-03-19T21:32:24.828Z,2.92
2023-03-19T21:34:53.135Z,3.10
2023-03-19T21:37:20.460Z,2.95
2023-03-19T21:39:47.767Z,2.92
2023-03-19T21:42:17.477Z,3.30
2023-03-19T21:44:45.790Z,3.05
2023-03-19T21:47:13.483Z,2.60
2023-03-19T21:49:40.857Z,3.00
2023-03-19T21:52:10.438Z,2.88
2023-03-19T21:54:37.854Z,2.70
2023-03-19T21:57:05.115Z,2.90
2023-03-19T21:59:33.640Z,3.10
2023-03-19T22:02:00.897Z,2.80
2023-03-19T22:04:28.098Z,2.75
2023-03-19T22:06:56.362Z,2.90
2023-03-19T22:09:23.562Z,3.00
2023-03-19T22:11:50.841Z,2.97
2023-03-19T22:14:18.950Z,3.03
2023-03-19T22:16:47.660Z,3.03
2023-03-19T22:19:15.073Z,2.95
2023-03-19T22:21:42.269Z,3.53
2023-03-19T22:24:09.466Z,2.80
2023-03-19T22:26:36.923Z,3.03
2023-03-19T22:29:04.962Z,3.00
2023-03-19T22:31:32.191Z,2.90
2023-03-19T22:34:00.930Z,3.42
2023-03-19T22:36:28.158Z,3.13
2023-03-19T22:38:55.349Z,3.03
2023-03-19T22:41:25.759Z,3.08
2023-03-19T22:43:53.053Z,2.90
2023-03-19T22:46:20.346Z,2.80
2023-03-19T22:48:49.961Z,4.38
2023-03-19T22:51:18.973Z,3.17
2023-03-19T22:53:46.363Z,3.33
2023-03-19T22:56:13.746Z,3.25
2023-03-19T22:58:41.526Z,3.25
2023-03-19T23:01:26.758Z,3.42
2023-03-19T23:03:54.067Z,3.40
2023-03-19T23:06:30.234Z,3.20
2023-03-19T23:08:58.053Z,3.15
2023-03-19T23:11:25.488Z,3.13
2023-03-19T23:13:55.317Z,3.45
2023-03-19T23:16:24.069Z,2.90
2023-03-19T23:18:51.489Z,3.10
2023-03-19T23:21:19.503Z,3.20
2023-03-19T23:23:48.080Z,3.08
2023-03-19T23:26:22.888Z,3.38
2023-03-19T23:28:50.448Z,3.10
2023-03-19T23:31:17.731Z,3.20
2023-03-19T23:33:45.990Z,3.40
2023-03-19T23:36:13.210Z,3.28
2023-03-19T23:38:40.858Z,3.00
2023-03-19T23:41:10.451Z,3.53
2023-03-19T23:43:37.657Z,2.53
2023-03-19T23:46:04.893Z,3.45
2023-03-19T23:48:33.299Z,3.58
2023-03-19T23:51:00.532Z,3.70
2023-03-19T23:53:28.185Z,3.70
2023-03-19T23:55:55.773Z,3.65
2023-03-19T23:58:24.275Z,4.35
